createdAt,value
2018-09-24T00:00:19.947Z,971.81
2018-09-24T00:01:19.871Z,971.81
2018-09-24T00:02:19.781Z,971.83
2018-09-24T00:03:19.753Z,971.86
2018-09-24T00:04:19.672Z,971.86
2018-09-24T00:05:19.677Z,971.85
2018-09-24T00:06:19.555Z,971.85
2018-09-24T00:07:19.515Z,971.90
2018-09-24T00:08:19.516Z,971.97
2018-09-24T00:09:19.400Z,972.02
2018-09-24T00:10:19.440Z,971.99
2018-09-24T00:11:19.302Z,972.02
2018-09-24T00:12:19.313Z,972.02
2018-09-24T00:13:19.197Z,972.02
2018-09-24T00:14:19.163Z,972.03
2018-09-24T00:15:19.085Z,972.07
2018-09-24T00:16:19.046Z,972.11
2018-09-24T00:17:19.078Z,972.15
2018-09-24T00:18:18.929Z,972.17
2018-09-24T00:19:18.933Z,972.17
2018-09-24T00:20:18.826Z,972.17
2018-09-24T00:21:18.848Z,972.26
2018-09-24T00:22:18.722Z,972.26
2018-09-24T00:23:18.742Z,972.35
2018-09-24T00:24:18.606Z,972.36
2018-09-24T00:25:18.572Z,972.34
2018-09-24T00:26:18.503Z,972.39
2018-09-24T00:27:18.454Z,972.36
2018-09-24T00:28:18.470Z,972.39
2018-09-24T00:29:18.351Z,972.47
2018-09-24T00:30:18.337Z,972.48
2018-09-24T00:31:18.262Z,972.48
2018-09-24T00:32:18.268Z,972.48
2018-09-24T00:33:18.146Z,972.54
2018-09-24T00:34:18.100Z,972.56
2018-09-24T00:35:18.032Z,972.59
2018-09-24T00:36:17.982Z,972.65
2018-09-24T00:37:17.993Z,972.65
2018-09-24T00:38:17.880Z,972.73
2018-09-24T00:39:17.866Z,972.69
2018-09-24T00:40:17.756Z,972.69
2018-09-24T00:41:17.760Z,972.73
2018-09-24T00:42:17.753Z,972.76
2018-09-24T00:43:17.634Z,972.78
2018-09-24T00:44:17.547Z,972.81
2018-09-24T00:45:17.548Z,972.82
2018-09-24T00:46:17.427Z,972.83
2018-09-24T00:47:17.396Z,972.86
2018-09-24T00:48:17.427Z,972.89
2018-09-24T00:49:17.312Z,972.91
2018-09-24T00:50:17.313Z,972.96
2018-09-24T00:51:17.189Z,972.94
2018-09-24T00:52:17.157Z,973.04
2018-09-24T00:53:17.073Z,973.09
2018-09-24T00:54:17.052Z,973.09
2018-09-24T00:55:17.044Z,973.11
2018-09-24T00:56:16.929Z,973.09
2018-09-24T00:57:16.922Z,973.11
2018-09-24T00:58:16.807Z,973.13
2018-09-24T00:59:16.807Z,973.12
2018-09-24T01:00:16.720Z,973.11
2018-09-24T01:01:16.685Z,973.16
2018-09-24T01:02:16.688Z,973.17
2018-09-24T01:03:16.570Z,973.21
2018-09-24T01:04:16.496Z,973.21
2018-09-24T01:05:16.487Z,973.23
2018-09-24T01:06:16.453Z,973.31
2018-09-24T01:07:16.333Z,973.30
2018-09-24T01:08:16.336Z,973.35
2018-09-24T01:09:16.261Z,973.34
2018-09-24T01:10:16.251Z,973.37
2018-09-24T01:11:16.219Z,973.38
2018-09-24T01:12:16.098Z,973.45
2018-09-24T01:13:16.017Z,973.47
2018-09-24T01:14:15.979Z,973.47
2018-09-24T01:15:15.899Z,973.46
2018-09-24T01:16:15.906Z,973.48
2018-09-24T01:17:15.864Z,973.47
2018-09-24T01:18:15.786Z,973.48
2018-09-24T01:19:15.745Z,973.49
2018-09-24T01:20:15.668Z,973.54
2018-09-24T01:21:15.662Z,973.55
2018-09-24T01:22:15.547Z,973.53
2018-09-24T01:23:15.510Z,973.56
2018-09-24T01:24:15.519Z,973.61
2018-09-24T01:25:15.391Z,973.57
2018-09-24T01:26:15.392Z,973.62
2018-09-24T01:27:15.305Z,973.60
2018-09-24T01:28:15.272Z,973.63
2018-09-24T01:29:15.275Z,973.64
2018-09-24T01:30:15.276Z,973.64
2018-09-24T01:31:15.071Z,973.67
2018-09-24T01:32:15.071Z,973.67
2018-09-24T01:33:14.955Z,973.68
2018-09-24T01:34:15.041Z,973.73
2018-09-24T01:35:14.832Z,973.72
2018-09-24T01:36:14.920Z,973.72
2018-09-24T01:37:14.928Z,973.73
2018-09-24T01:38:14.802Z,973.77
2018-09-24T01:39:14.804Z,973.79
2018-09-24T01:40:14.688Z,973.83
2018-09-24T01:41:14.685Z,973.82
2018-09-24T01:42:14.566Z,973.86
2018-09-24T01:43:14.692Z,973.83
2018-09-24T01:44:14.453Z,973.85
2018-09-24T01:45:14.451Z,973.85
2018-09-24T01:46:14.452Z,973.85
2018-09-24T01:47:14.331Z,973.91
2018-09-24T01:48:14.452Z,973.90
2018-09-24T01:49:14.214Z,973.94
2018-09-24T01:50:14.214Z,973.91
2018-09-24T01:51:14.096Z,973.95
2018-09-24T01:52:14.097Z,973.98
2018-09-24T01:53:14.097Z,973.95
2018-09-24T01:54:13.979Z,973.95
2018-09-24T01:55:13.858Z,973.97
2018-09-24T01:56:13.861Z,974.01
2018-09-24T01:57:13.862Z,974.00
2018-09-24T01:58:13.862Z,974.00
2018-09-24T01:59:13.743Z,973.99
2018-09-24T02:00:13.627Z,974.01
2018-09-24T02:01:13.626Z,974.07
2018-09-24T02:02:13.506Z,974.09
2018-09-24T02:03:13.628Z,974.12
2018-09-24T02:04:13.387Z,974.18
2018-09-24T02:05:13.389Z,974.17
2018-09-24T02:06:13.271Z,974.16
2018-09-24T02:07:13.270Z,974.18
2018-09-24T02:08:13.392Z,974.21
2018-09-24T02:09:13.152Z,974.22
2018-09-24T02:10:13.156Z,974.22
2018-09-24T02:11:13.155Z,974.26
2018-09-24T02:12:13.034Z,974.23
2018-09-24T02:13:12.917Z,974.29
2018-09-24T02:14:12.917Z,974.28
2018-09-24T02:15:12.919Z,974.32
2018-09-24T02:16:12.799Z,974.32
2018-09-24T02:17:12.800Z,974.35
2018-09-24T02:18:12.682Z,974.40
2018-09-24T02:19:12.683Z,974.32
2018-09-24T02:20:12.684Z,974.37
2018-09-24T02:21:12.564Z,974.38
2018-09-24T02:22:12.564Z,974.42
2018-09-24T02:23:12.446Z,974.39
2018-09-24T02:24:12.328Z,974.40
2018-09-24T02:25:12.328Z,974.45
2018-09-24T02:26:12.215Z,974.43
2018-09-24T02:27:12.334Z,974.45
2018-09-24T02:28:12.210Z,974.43
2018-09-24T02:29:12.091Z,974.44
2018-09-24T02:30:12.100Z,974.40
2018-09-24T02:31:11.974Z,974.46
2018-09-24T02:32:12.095Z,974.57
2018-09-24T02:33:11.974Z,974.54
2018-09-24T02:34:11.859Z,974.56
2018-09-24T02:35:11.737Z,974.56
2018-09-24T02:36:11.738Z,974.58
2018-09-24T02:37:11.620Z,974.63
2018-09-24T02:38:11.740Z,974.62
2018-09-24T02:39:11.621Z,974.65
2018-09-24T02:40:11.437Z,974.66
2018-09-24T02:41:11.434Z,974.67
2018-09-24T02:42:11.320Z,974.67
2018-09-24T02:43:11.435Z,974.68
2018-09-24T02:44:11.199Z,974.70
2018-09-24T02:45:11.197Z,974.72
2018-09-24T02:46:11.148Z,974.78
2018-09-24T02:47:11.040Z,974.78
2018-09-24T02:48:11.038Z,974.80
2018-09-24T02:49:10.916Z,974.81
2018-09-24T02:50:10.917Z,974.82
2018-09-24T02:51:10.799Z,974.84
2018-09-24T02:52:10.913Z,974.87
2018-09-24T02:53:10.731Z,974.83
2018-09-24T02:54:10.680Z,974.86
2018-09-24T02:55:10.676Z,974.83
2018-09-24T02:56:10.614Z,974.85
2018-09-24T02:57:10.492Z,974.87
2018-09-24T02:58:10.445Z,974.90
2018-09-24T02:59:10.444Z,974.90
2018-09-24T03:00:10.325Z,974.94
2018-09-24T03:01:10.393Z,974.90
2018-09-24T03:02:10.209Z,974.92
2018-09-24T03:03:10.208Z,974.92
2018-09-24T03:04:10.128Z,974.96
2018-09-24T03:05:10.090Z,974.95
2018-09-24T03:06:10.092Z,974.96
2018-09-24T03:07:09.973Z,974.94
2018-09-24T03:08:09.895Z,975.01
2018-09-24T03:09:09.857Z,975.05
2018-09-24T03:10:09.854Z,975.05
2018-09-24T03:11:09.774Z,975.08
2018-09-24T03:12:09.739Z,975.10
2018-09-24T03:13:09.619Z,975.13
2018-09-24T03:14:09.737Z,975.16
2018-09-24T03:15:09.536Z,975.16
2018-09-24T03:16:09.498Z,975.18
2018-09-24T03:17:09.421Z,975.18
2018-09-24T03:18:09.382Z,975.16
2018-09-24T03:19:09.415Z,975.18
2018-09-24T03:20:09.266Z,975.17
2018-09-24T03:21:09.263Z,975.20
2018-09-24T03:22:09.146Z,975.20
2018-09-24T03:23:09.145Z,975.21
2018-09-24T03:24:09.063Z,975.24
2018-09-24T03:25:09.025Z,975.25
2018-09-24T03:26:09.018Z,975.29
2018-09-24T03:27:08.949Z,975.32
2018-09-24T03:28:08.829Z,975.31
2018-09-24T03:29:08.791Z,975.36
2018-09-24T03:30:08.708Z,975.37
2018-09-24T03:31:08.675Z,975.35
2018-09-24T03:32:08.715Z,975.36
2018-09-24T03:33:08.556Z,975.40
2018-09-24T03:34:08.593Z,975.46
2018-09-24T03:35:08.458Z,975.47
2018-09-24T03:36:08.476Z,975.45
2018-09-24T03:37:08.357Z,975.48
2018-09-24T03:38:08.345Z,975.47
2018-09-24T03:39:08.233Z,975.51
2018-09-24T03:40:08.201Z,975.49
2018-09-24T03:41:08.202Z,975.50
2018-09-24T03:42:08.084Z,975.53
2018-09-24T03:43:08.084Z,975.53
2018-09-24T03:44:07.967Z,975.52
2018-09-24T03:45:07.966Z,975.51
2018-09-24T03:46:07.969Z,975.47
2018-09-24T03:47:07.848Z,975.54
2018-09-24T03:48:07.766Z,975.50
2018-09-24T03:49:07.731Z,975.54
2018-09-24T03:50:07.647Z,975.55
2018-09-24T03:51:07.664Z,975.54
2018-09-24T03:52:07.540Z,975.55
2018-09-24T03:53:07.501Z,975.58
2018-09-24T03:54:07.494Z,975.57
2018-09-24T03:55:07.425Z,975.56
2018-09-24T03:56:07.375Z,975.55
2018-09-24T03:57:07.266Z,975.56
2018-09-24T03:58:07.260Z,975.54
2018-09-24T03:59:07.228Z,975.55
2018-09-24T04:00:07.184Z,975.59
2018-09-24T04:01:07.152Z,975.60
2018-09-24T04:02:07.026Z,975.58
2018-09-24T04:03:06.945Z,975.60
2018-09-24T04:04:06.905Z,975.65
2018-09-24T04:05:06.918Z,975.67
2018-09-24T04:06:06.824Z,975.69
2018-09-24T04:07:06.790Z,975.68
2018-09-24T04:08:06.678Z,975.75
2018-09-24T04:09:06.674Z,975.73
2018-09-24T04:10:06.637Z,975.74
2018-09-24T04:11:06.592Z,975.72
2018-09-24T04:12:06.472Z,975.72
2018-09-24T04:13:06.437Z,975.74
2018-09-24T04:14:06.348Z,975.70
2018-09-24T04:15:06.315Z,975.75
2018-09-24T04:16:06.316Z,975.73
2018-09-24T04:17:06.196Z,975.72
2018-09-24T04:18:06.197Z,975.75
2018-09-24T04:19:06.091Z,975.77
2018-09-24T04:20:06.111Z,975.78
2018-09-24T04:21:05.995Z,975.79
2018-09-24T04:22:05.963Z,975.78
2018-09-24T04:23:05.966Z,975.79
2018-09-24T04:24:05.849Z,975.79
2018-09-24T04:25:05.761Z,975.79
2018-09-24T04:26:05.738Z,975.79
2018-09-24T04:27:05.641Z,975.78
2018-09-24T04:28:05.639Z,975.85
2018-09-24T04:29:05.608Z,975.89
2018-09-24T04:30:05.493Z,975.91
2018-09-24T04:31:05.490Z,975.94
2018-09-24T04:32:05.402Z,975.94
2018-09-24T04:33:07.415Z,975.91
2018-09-24T04:34:05.286Z,975.93
2018-09-24T04:35:05.255Z,975.92
2018-09-24T04:36:05.168Z,975.94
2018-09-24T04:37:05.135Z,975.94
2018-09-24T04:38:05.065Z,975.92
2018-09-24T04:39:05.054Z,975.98
2018-09-24T04:40:05.019Z,976.00
2018-09-24T04:41:04.904Z,976.01
2018-09-24T04:42:04.901Z,976.02
2018-09-24T04:43:04.823Z,976.05
2018-09-24T04:44:04.815Z,976.02
2018-09-24T04:45:04.703Z,976.02
2018-09-24T04:46:04.703Z,976.06
2018-09-24T04:47:04.580Z,976.05
2018-09-24T04:48:04.546Z,976.12
2018-09-24T04:49:04.519Z,976.11
2018-09-24T04:50:04.549Z,976.12
2018-09-24T04:51:04.429Z,976.13
2018-09-24T04:52:04.343Z,976.17
2018-09-24T04:53:04.312Z,976.14
2018-09-24T04:54:04.231Z,976.18
2018-09-24T04:55:04.200Z,976.22
2018-09-24T04:56:04.195Z,976.25
2018-09-24T04:57:04.075Z,976.29
2018-09-24T04:58:03.989Z,976.33
2018-09-24T04:59:03.957Z,976.38
2018-09-24T05:00:03.873Z,976.46
2018-09-24T05:01:03.959Z,976.45
2018-09-24T05:02:03.960Z,976.49
2018-09-24T05:03:03.842Z,976.49
2018-09-24T05:04:03.843Z,976.55
2018-09-24T05:05:03.844Z,976.55
2018-09-24T05:06:03.725Z,976.60
2018-09-24T05:07:03.605Z,976.59
2018-09-24T05:08:03.614Z,976.57
2018-09-24T05:09:03.608Z,976.62
2018-09-24T05:10:03.499Z,976.61
2018-09-24T05:11:03.493Z,976.61
2018-09-24T05:12:03.369Z,976.61
2018-09-24T05:13:03.371Z,976.60
2018-09-24T05:14:03.251Z,976.59
2018-09-24T05:15:03.253Z,976.55
2018-09-24T05:16:03.265Z,976.54
2018-09-24T05:17:03.257Z,976.49
2018-09-24T05:18:03.016Z,976.54
2018-09-24T05:19:03.018Z,976.52
2018-09-24T05:20:02.898Z,976.51
2018-09-24T05:21:02.899Z,976.52
2018-09-24T05:22:02.901Z,976.53
2018-09-24T05:23:02.901Z,976.55
2018-09-24T05:24:02.783Z,976.57
2018-09-24T05:25:02.661Z,976.60
2018-09-24T05:26:02.663Z,976.57
2018-09-24T05:27:02.664Z,976.61
2018-09-24T05:28:02.669Z,976.60
2018-09-24T05:29:02.429Z,976.63
2018-09-24T05:30:02.428Z,976.61
2018-09-24T05:31:02.309Z,976.62
2018-09-24T05:32:02.308Z,976.63
2018-09-24T05:33:02.312Z,976.69
2018-09-24T05:34:02.210Z,976.75
2018-09-24T05:35:02.193Z,976.75
2018-09-24T05:36:02.075Z,976.77
2018-09-24T05:37:02.074Z,976.84
2018-09-24T05:38:02.076Z,976.85
2018-09-24T05:39:01.956Z,976.85
2018-09-24T05:40:01.959Z,976.86
2018-09-24T05:41:01.841Z,976.87
2018-09-24T05:42:01.867Z,976.96
2018-09-24T05:43:01.720Z,976.95
2018-09-24T05:44:01.603Z,976.95
2018-09-24T05:45:01.721Z,976.98
2018-09-24T05:46:01.603Z,976.96
2018-09-24T05:47:01.484Z,976.97
2018-09-24T05:48:01.507Z,977.02
2018-09-24T05:49:01.485Z,977.03
2018-09-24T05:50:01.369Z,977.07
2018-09-24T05:51:01.247Z,977.10
2018-09-24T05:52:01.248Z,977.08
2018-09-24T05:53:01.252Z,977.11
2018-09-24T05:54:01.134Z,977.16
2018-09-24T05:55:01.010Z,977.17
2018-09-24T05:56:01.019Z,977.16
2018-09-24T05:57:01.018Z,977.21
2018-09-24T05:58:01.013Z,977.26
2018-09-24T05:59:00.894Z,977.30
2018-09-24T06:00:00.775Z,977.31
2018-09-24T06:01:00.778Z,977.35
2018-09-24T06:02:00.657Z,977.37
2018-09-24T06:03:00.718Z,977.36
2018-09-24T06:04:00.568Z,977.39
2018-09-24T06:05:00.477Z,977.42
2018-09-24T06:06:00.422Z,977.45
2018-09-24T06:07:00.312Z,977.46
2018-09-24T06:08:00.310Z,977.50
2018-09-24T06:09:00.195Z,977.52
2018-09-24T06:10:00.191Z,977.57
2018-09-24T06:11:00.121Z,977.56
2018-09-24T06:12:00.076Z,977.55
2018-09-24T06:13:00.006Z,977.56
2018-09-24T06:13:59.960Z,977.59
2018-09-24T06:14:59.880Z,977.59
2018-09-24T06:15:59.881Z,977.57
2018-09-24T06:16:59.760Z,977.57
2018-09-24T06:17:59.718Z,977.60
2018-09-24T06:18:59.776Z,977.60
2018-09-24T06:19:59.600Z,977.63
2018-09-24T06:20:59.644Z,977.70
2018-09-24T06:21:59.482Z,977.73
2018-09-24T06:22:59.481Z,977.71
2018-09-24T06:23:59.411Z,977.73
2018-09-24T06:24:59.411Z,977.72
2018-09-24T06:25:59.291Z,977.77
2018-09-24T06:26:59.247Z,977.86
2018-09-24T06:27:59.165Z,977.80
2018-09-24T06:28:59.172Z,977.84
2018-09-24T06:29:59.137Z,977.84
2018-09-24T06:30:59.010Z,977.82
2018-09-24T06:31:59.010Z,977.82
2018-09-24T06:32:58.927Z,977.85
2018-09-24T06:33:58.891Z,977.81
2018-09-24T06:34:58.808Z,977.91
2018-09-24T06:35:58.815Z,977.90
2018-09-24T06:36:58.711Z,977.95
2018-09-24T06:37:58.690Z,977.97
2018-09-24T06:38:58.569Z,977.97
2018-09-24T06:39:58.541Z,977.95
2018-09-24T06:40:58.537Z,977.99
2018-09-24T06:41:58.420Z,978.02
2018-09-24T06:42:58.454Z,978.04
2018-09-24T06:43:58.306Z,978.05
2018-09-24T06:44:58.299Z,978.08
2018-09-24T06:45:58.213Z,978.08
2018-09-24T06:46:58.183Z,978.08
2018-09-24T06:47:58.187Z,978.09
2018-09-24T06:48:58.064Z,978.17
2018-09-24T06:49:57.985Z,978.17
2018-09-24T06:50:57.985Z,978.19
2018-09-24T06:51:57.946Z,978.19
2018-09-24T06:52:57.833Z,978.20
2018-09-24T06:53:57.831Z,978.14
2018-09-24T06:54:57.715Z,978.19
2018-09-24T06:55:57.744Z,978.21
2018-09-24T06:56:57.638Z,978.18
2018-09-24T06:57:57.593Z,978.20
2018-09-24T06:58:57.637Z,978.26
2018-09-24T06:59:57.477Z,978.31
2018-09-24T07:00:57.478Z,978.33
2018-09-24T07:01:57.358Z,978.37
2018-09-24T07:02:57.357Z,978.37
2018-09-24T07:03:57.390Z,978.36
2018-09-24T07:04:57.282Z,978.37
2018-09-24T07:05:57.156Z,978.40
2018-09-24T07:06:57.121Z,978.41
2018-09-24T07:07:57.036Z,978.50
2018-09-24T07:08:57.055Z,978.51
2018-09-24T07:09:56.937Z,978.52
2018-09-24T07:10:56.885Z,978.53
2018-09-24T07:11:56.886Z,978.53
2018-09-24T07:12:56.776Z,978.57
2018-09-24T07:13:56.817Z,978.60
2018-09-24T07:14:56.667Z,978.63
2018-09-24T07:15:56.652Z,978.58
2018-09-24T07:16:56.566Z,978.60
2018-09-24T07:17:56.531Z,978.61
2018-09-24T07:18:56.587Z,978.61
2018-09-24T07:19:56.454Z,978.65
2018-09-24T07:20:56.435Z,978.63
2018-09-24T07:21:56.303Z,978.65
2018-09-24T07:22:56.298Z,978.64
2018-09-24T07:23:56.221Z,978.69
2018-09-24T07:24:56.179Z,978.69
2018-09-24T07:25:56.096Z,978.71
2018-09-24T07:26:56.063Z,978.66
2018-09-24T07:27:56.014Z,978.76
2018-09-24T07:28:55.984Z,978.74
2018-09-24T07:29:55.955Z,978.79
2018-09-24T07:30:55.838Z,978.80
2018-09-24T07:31:55.845Z,978.85
2018-09-24T07:32:55.767Z,978.90
2018-09-24T07:33:55.748Z,978.88
2018-09-24T07:34:55.627Z,978.89
2018-09-24T07:35:55.630Z,979.01
2018-09-24T07:36:55.514Z,978.98
2018-09-24T07:37:55.475Z,979.01
2018-09-24T07:38:55.472Z,978.99
2018-09-24T07:39:55.393Z,979.02
2018-09-24T07:40:55.368Z,979.02
2018-09-24T07:41:55.269Z,979.09
2018-09-24T07:42:55.249Z,979.05
2018-09-24T07:43:55.151Z,979.12
2018-09-24T07:44:55.155Z,979.10
2018-09-24T07:45:55.118Z,979.09
2018-09-24T07:46:55.001Z,979.13
2018-09-24T07:47:55.033Z,979.17
2018-09-24T07:48:54.886Z,979.16
2018-09-24T07:49:54.918Z,979.19
2018-09-24T07:50:54.801Z,979.20
2018-09-24T07:51:54.765Z,979.25
2018-09-24T07:52:54.679Z,979.24
2018-09-24T07:53:54.685Z,979.24
2018-09-24T07:54:54.649Z,979.29
2018-09-24T07:55:54.531Z,979.31
2018-09-24T07:56:54.530Z,979.31
2018-09-24T07:57:54.449Z,979.32
2018-09-24T07:58:54.452Z,979.33
2018-09-24T07:59:54.332Z,979.39
2018-09-24T08:00:54.312Z,979.35
2018-09-24T08:01:54.214Z,979.39
2018-09-24T08:02:54.216Z,979.37
2018-09-24T08:03:54.178Z,979.38
2018-09-24T08:04:54.098Z,979.33
2018-09-24T08:05:54.058Z,979.42
2018-09-24T08:06:53.974Z,979.40
2018-09-24T08:07:53.982Z,979.43
2018-09-24T08:08:53.853Z,979.41
2018-09-24T08:09:53.822Z,979.44
2018-09-24T08:10:53.823Z,979.45
2018-09-24T08:11:53.745Z,979.47
2018-09-24T08:12:53.888Z,979.43
2018-09-24T08:13:53.625Z,979.45
2018-09-24T08:14:53.587Z,979.46
2018-09-24T08:15:53.587Z,979.48
2018-09-24T08:16:53.470Z,979.45
2018-09-24T08:17:53.470Z,979.49
2018-09-24T08:18:53.471Z,979.50
2018-09-24T08:19:53.353Z,979.53
2018-09-24T08:20:53.300Z,979.57
2018-09-24T08:21:53.233Z,979.53
2018-09-24T08:22:53.150Z,979.58
2018-09-24T08:23:53.236Z,979.61
2018-09-24T08:24:53.116Z,979.52
2018-09-24T08:25:52.998Z,979.54
2018-09-24T08:26:52.998Z,979.62
2018-09-24T08:27:53.000Z,979.60
2018-09-24T08:28:53.192Z,979.56
2018-09-24T08:29:52.882Z,979.60
2018-09-24T08:30:53.004Z,979.62
2018-09-24T08:31:52.766Z,979.64
2018-09-24T08:32:52.763Z,979.65
2018-09-24T08:33:52.765Z,979.68
2018-09-24T08:34:52.765Z,979.71
2018-09-24T08:35:52.771Z,979.67
2018-09-24T08:36:52.528Z,979.68
2018-09-24T08:37:52.528Z,979.70
2018-09-24T08:38:52.413Z,979.70
2018-09-24T08:39:52.414Z,979.67
2018-09-24T08:40:52.535Z,979.67
2018-09-24T08:41:52.412Z,979.75
2018-09-24T08:42:52.295Z,979.70
2018-09-24T08:43:52.175Z,979.77
2018-09-24T08:44:52.177Z,979.85
2018-09-24T08:45:52.056Z,979.96
2018-09-24T08:46:52.178Z,979.87
2018-09-24T08:47:52.179Z,979.94
2018-09-24T08:48:51.940Z,979.77
2018-09-24T08:49:51.991Z,979.78
2018-09-24T08:50:51.822Z,979.93
2018-09-24T08:51:51.821Z,979.89
2018-09-24T08:52:51.824Z,979.87
2018-09-24T08:53:51.704Z,979.86
2018-09-24T08:54:51.826Z,979.87
2018-09-24T08:55:51.587Z,979.82
2018-09-24T08:56:51.647Z,979.82
2018-09-24T08:57:51.470Z,979.85
2018-09-24T08:58:51.589Z,979.93
2018-09-24T08:59:51.469Z,979.93
2018-09-24T09:00:51.353Z,979.92
2018-09-24T09:01:51.353Z,979.92
2018-09-24T09:02:51.264Z,979.93
2018-09-24T09:03:51.236Z,980.02
2018-09-24T09:04:51.236Z,979.97
2018-09-24T09:05:51.118Z,979.92
2018-09-24T09:06:51.116Z,980.00
2018-09-24T09:07:50.999Z,979.99
2018-09-24T09:08:50.998Z,979.95
2018-09-24T09:09:51.002Z,979.90
2018-09-24T09:10:50.881Z,980.11
2018-09-24T09:11:50.881Z,979.95
2018-09-24T09:12:50.764Z,979.92
2018-09-24T09:13:50.764Z,980.08
2018-09-24T09:14:50.765Z,979.99
2018-09-24T09:15:50.648Z,980.03
2018-09-24T09:16:50.528Z,980.02
2018-09-24T09:17:50.528Z,980.00
2018-09-24T09:18:50.527Z,980.01
2018-09-24T09:19:50.530Z,980.09
2018-09-24T09:20:50.530Z,980.13
2018-09-24T09:21:50.291Z,980.15
2018-09-24T09:22:50.293Z,980.10
2018-09-24T09:23:50.225Z,980.17
2018-09-24T09:24:50.293Z,980.18
2018-09-24T09:25:50.174Z,980.23
2018-09-24T09:26:50.056Z,980.18
2018-09-24T09:27:49.995Z,980.15
2018-09-24T09:28:49.993Z,980.23
2018-09-24T09:29:49.876Z,980.17
2018-09-24T09:30:49.871Z,980.17
2018-09-24T09:31:49.707Z,980.30
2018-09-24T09:32:49.708Z,980.37
2018-09-24T09:33:49.634Z,980.42
2018-09-24T09:34:49.709Z,980.45
2018-09-24T09:35:49.515Z,980.40
2018-09-24T09:36:49.470Z,980.44
2018-09-24T09:37:49.473Z,980.50
2018-09-24T09:38:49.357Z,980.51
2018-09-24T09:39:49.468Z,980.52
2018-09-24T09:40:49.279Z,980.53
2018-09-24T09:41:49.238Z,980.48
2018-09-24T09:42:49.237Z,980.58
2018-09-24T09:43:49.122Z,980.54
2018-09-24T09:44:49.118Z,980.48
2018-09-24T09:45:49.001Z,980.48
2018-09-24T09:46:49.029Z,980.42
2018-09-24T09:47:49.001Z,980.43
2018-09-24T09:48:48.882Z,980.44
2018-09-24T09:49:48.882Z,980.50
2018-09-24T09:50:48.765Z,980.49
2018-09-24T09:51:48.809Z,980.55
2018-09-24T09:52:48.685Z,980.54
2018-09-24T09:53:48.647Z,980.61
2018-09-24T09:54:48.646Z,980.63
2018-09-24T09:55:48.529Z,980.50
2018-09-24T09:56:48.564Z,980.59
2018-09-24T09:57:48.527Z,980.55
2018-09-24T09:58:48.563Z,980.55
2018-09-24T09:59:48.411Z,980.56
2018-09-24T10:00:48.293Z,980.57
2018-09-24T10:01:48.292Z,980.54
2018-09-24T10:02:48.205Z,980.54
2018-09-24T10:03:48.206Z,980.57
2018-09-24T10:04:48.224Z,980.54
2018-09-24T10:05:48.054Z,980.61
2018-09-24T10:06:48.096Z,980.57
2018-09-24T10:07:47.977Z,980.64
2018-09-24T10:08:47.937Z,980.68
2018-09-24T10:09:47.938Z,980.73
2018-09-24T10:10:47.819Z,980.72
2018-09-24T10:11:47.820Z,980.64
2018-09-24T10:12:47.739Z,980.62
2018-09-24T10:13:47.701Z,980.63
2018-09-24T10:14:47.703Z,980.66
2018-09-24T10:15:47.585Z,980.64
2018-09-24T10:16:47.586Z,980.53
2018-09-24T10:17:47.470Z,980.48
2018-09-24T10:18:47.465Z,980.52
2018-09-24T10:19:47.467Z,980.61
2018-09-24T10:20:47.347Z,980.56
2018-09-24T10:21:47.348Z,980.57
2018-09-24T10:22:47.416Z,980.67
2018-09-24T10:23:47.232Z,980.56
2018-09-24T10:24:47.151Z,980.71
2018-09-24T10:25:47.114Z,980.68
2018-09-24T10:26:47.116Z,980.75
2018-09-24T10:27:47.048Z,980.70
2018-09-24T10:28:46.996Z,980.74
2018-09-24T10:29:46.908Z,980.77
2018-09-24T10:30:46.878Z,980.70
2018-09-24T10:31:46.880Z,980.70
2018-09-24T10:32:46.816Z,980.62
2018-09-24T10:33:46.821Z,980.78
2018-09-24T10:34:46.690Z,980.66
2018-09-24T10:35:46.646Z,980.68
2018-09-24T10:36:46.683Z,980.67
2018-09-24T10:37:46.561Z,980.71
2018-09-24T10:38:46.525Z,980.69
2018-09-24T10:39:46.610Z,980.64
2018-09-24T10:40:46.456Z,980.62
2018-09-24T10:41:46.408Z,980.64
2018-09-24T10:42:46.430Z,980.58
2018-09-24T10:43:46.290Z,980.60
2018-09-24T10:44:46.222Z,980.56
2018-09-24T10:45:46.188Z,980.47
2018-09-24T10:46:46.182Z,980.53
2018-09-24T10:47:46.174Z,980.56
2018-09-24T10:48:46.097Z,980.56
2018-09-24T10:49:46.056Z,980.59
2018-09-24T10:50:45.948Z,980.57
2018-09-24T10:51:45.944Z,980.61
2018-09-24T10:52:45.863Z,980.65
2018-09-24T10:53:45.859Z,980.63
2018-09-24T10:54:45.827Z,980.65
2018-09-24T10:55:45.728Z,980.67
2018-09-24T10:56:45.707Z,980.71
2018-09-24T10:57:45.622Z,980.73
2018-09-24T10:58:45.625Z,980.80
2018-09-24T10:59:45.588Z,980.85
2018-09-24T11:00:45.473Z,980.90
2018-09-24T11:01:45.470Z,980.92
2018-09-24T11:02:45.389Z,980.92
2018-09-24T11:03:45.384Z,980.91
2018-09-24T11:04:45.374Z,980.93
2018-09-24T11:05:45.239Z,980.82
2018-09-24T11:06:45.232Z,980.86
2018-09-24T11:07:45.233Z,980.90
2018-09-24T11:08:45.114Z,980.89
2018-09-24T11:09:45.115Z,980.86
2018-09-24T11:10:45.116Z,980.74
2018-09-24T11:11:44.997Z,980.81
2018-09-24T11:12:44.914Z,980.75
2018-09-24T11:13:44.881Z,980.73
2018-09-24T11:14:44.915Z,980.74
2018-09-24T11:15:44.949Z,980.81
2018-09-24T11:16:45.077Z,980.69
2018-09-24T11:17:45.088Z,980.65
2018-09-24T11:18:44.651Z,980.68
2018-09-24T11:19:44.657Z,980.71
2018-09-24T11:20:44.556Z,980.67
2018-09-24T11:21:44.531Z,980.76
2018-09-24T11:22:44.526Z,980.69
2018-09-24T11:23:44.547Z,980.65
2018-09-24T11:24:44.410Z,980.67
2018-09-24T11:25:44.330Z,980.65
2018-09-24T11:26:44.291Z,980.80
2018-09-24T11:27:44.332Z,980.77
2018-09-24T11:28:44.293Z,980.75
2018-09-24T11:29:44.227Z,980.75
2018-09-24T11:30:44.182Z,980.77
2018-09-24T11:31:44.056Z,980.76
2018-09-24T11:32:44.058Z,980.72
2018-09-24T11:33:43.985Z,980.70
2018-09-24T11:34:43.940Z,980.76
2018-09-24T11:35:43.940Z,980.76
2018-09-24T11:36:43.822Z,980.71
2018-09-24T11:37:43.822Z,980.69
2018-09-24T11:38:43.822Z,980.65
2018-09-24T11:39:43.704Z,980.64
2018-09-24T11:40:43.704Z,980.65
2018-09-24T11:41:43.624Z,980.63
2018-09-24T11:42:43.706Z,980.59
2018-09-24T11:43:43.589Z,980.63
2018-09-24T11:44:43.468Z,980.67
2018-09-24T11:45:43.469Z,980.65
2018-09-24T11:46:43.433Z,980.65
2018-09-24T11:47:43.352Z,980.61
2018-09-24T11:48:43.353Z,980.62
2018-09-24T11:49:43.354Z,980.61
2018-09-24T11:50:43.234Z,980.56
2018-09-24T11:51:43.235Z,980.54
2018-09-24T11:52:43.118Z,980.62
2018-09-24T11:53:43.356Z,980.52
2018-09-24T11:54:43.119Z,980.52
2018-09-24T11:55:43.118Z,980.59
2018-09-24T11:56:43.120Z,980.65
2018-09-24T11:57:43.001Z,980.75
2018-09-24T11:58:43.001Z,980.89
2018-09-24T11:59:42.883Z,980.78
2018-09-24T12:00:42.884Z,980.93
2018-09-24T12:01:42.885Z,980.76
2018-09-24T12:02:42.766Z,980.84
2018-09-24T12:03:42.767Z,980.74
2018-09-24T12:04:42.648Z,980.75
2018-09-24T12:05:42.768Z,980.79
2018-09-24T12:06:42.648Z,980.80
2018-09-24T12:07:42.531Z,980.79
2018-09-24T12:08:42.532Z,980.74
2018-09-24T12:09:42.532Z,980.75
2018-09-24T12:10:42.556Z,980.76
2018-09-24T12:11:42.414Z,980.72
2018-09-24T12:12:42.296Z,980.73
2018-09-24T12:13:42.296Z,980.70
2018-09-24T12:14:42.298Z,980.71
2018-09-24T12:15:42.302Z,980.68
2018-09-24T12:16:42.300Z,980.65
2018-09-24T12:17:42.179Z,980.69
2018-09-24T12:18:42.061Z,980.65
2018-09-24T12:19:42.064Z,980.70
2018-09-24T12:20:41.942Z,980.62
2018-09-24T12:21:42.066Z,980.62
2018-09-24T12:22:41.945Z,980.64
2018-09-24T12:23:41.826Z,980.62
2018-09-24T12:24:41.829Z,980.57
2018-09-24T12:25:41.830Z,980.61
2018-09-24T12:26:41.832Z,980.63
2018-09-24T12:27:41.711Z,980.63